Time;durP1;ratioP1;P1;durP2;ratioP2;P2;SDS_P1;SDS_P2;PMS_P1;PMS_P2;Temp;Humidity;BMP_temperature;BMP_pressure;BME280_temperature;BME280_humidity;BME280_pressure;Samples;Min_cycle;Max_cycle;Signal;HPM_P1;HPM_P2
2023/05/07 00:00:21;;;;;;;17.10;5.70;;;;;;;4.86;91.71;100806.63;4232468;28;20235;-67
2023/05/07 00:02:47;;;;;;;14.03;5.97;;;;;;;4.87;91.88;100808.34;4213923;28;20239;-67
2023/05/07 00:05:14;;;;;;;10.07;5.90;;;;;;;4.84;92.39;100811.22;4213612;28;20234;-65
2023/05/07 00:07:41;;;;;;;8.83;4.87;;;;;;;4.85;92.18;100805.75;4230486;28;20239;-68
2023/05/07 00:10:12;;;;;;;8.93;5.50;;;;;;;4.79;92.04;100805.31;4230707;28;20243;-66
2023/05/07 00:12:40;;;;;;;11.40;5.47;;;;;;;4.87;91.71;100811.03;4230019;28;21799;-64
2023/05/07 00:15:07;;;;;;;11.13;6.13;;;;;;;4.84;92.41;100814.75;4232939;28;20250;-65
2023/05/07 00:17:34;;;;;;;14.07;5.73;;;;;;;4.84;92.47;100812.06;4229315;28;20293;-64
2023/05/07 00:20:03;;;;;;;11.73;6.20;;;;;;;4.85;92.33;100815.63;4227350;28;20317;-66
2023/05/07 00:22:30;;;;;;;9.57;5.03;;;;;;;4.83;92.14;100829.16;4216514;28;20372;-65
2023/05/07 00:24:56;;;;;;;11.40;6.23;;;;;;;4.76;91.58;100815.28;4218943;28;20346;-66
2023/05/07 00:27:24;;;;;;;11.20;5.77;;;;;;;4.71;92.22;100824.56;4231969;28;20243;-68
2023/05/07 00:29:50;;;;;;;12.50;5.60;;;;;;;4.73;92.27;100820.81;4233959;28;20485;-65
2023/05/07 00:32:17;;;;;;;13.17;6.00;;;;;;;4.82;91.82;100823.88;4226142;28;20323;-64
2023/05/07 00:34:43;;;;;;;12.10;6.07;;;;;;;4.74;91.82;100819.88;4230086;28;20375;-66
2023/05/07 00:37:11;;;;;;;11.27;6.40;;;;;;;4.75;92.27;100829.63;4232028;28;20385;-67
2023/05/07 00:39:38;;;;;;;8.93;5.10;;;;;;;4.74;92.16;100816.34;4230260;28;20463;-67
2023/05/07 00:42:04;;;;;;;10.10;5.37;;;;;;;4.78;92.16;100831.25;4223153;28;20247;-64
2023/05/07 00:44:31;;;;;;;13.13;6.10;;;;;;;4.69;92.63;100829.16;4224966;28;20419;-66
2023/05/07 00:46:57;;;;;;;8.87;5.47;;;;;;;4.67;92.54;100826.59;4209374;28;21862;-65
2023/05/07 00:49:35;;;;;;;9.13;5.37;;;;;;;4.69;92.24;100827.38;4229376;28;20296;-66
2023/05/07 00:52:02;;;;;;;10.47;5.23;;;;;;;4.75;92.00;100837.69;4219719;28;20298;-66
2023/05/07 00:54:29;;;;;;;8.40;5.30;;;;;;;4.70;92.14;100844.31;4230409;28;21940;-65
2023/05/07 00:56:56;;;;;;;11.80;5.47;;;;;;;4.68;92.21;100847.09;4229990;28;20553;-67
2023/05/07 00:59:22;;;;;;;9.07;5.27;;;;;;;4.72;92.56;100851.28;4211356;28;21941;-66
2023/05/07 01:01:49;;;;;;;9.00;4.87;;;;;;;4.76;92.15;100844.78;4238250;28;20488;-67
2023/05/07 01:04:15;;;;;;;9.20;5.50;;;;;;;4.74;91.75;100849.38;4236551;28;20308;-66
2023/05/07 01:06:44;;;;;;;7.67;4.90;;;;;;;4.73;91.87;100850.31;4230714;28;20227;-65
2023/05/07 01:09:12;;;;;;;10.40;5.87;;;;;;;4.66;92.32;100845.47;4214083;28;20235;-65
2023/05/07 01:11:39;;;;;;;12.37;5.37;;;;;;;4.76;92.02;100842.09;4214781;28;21857;-65
2023/05/07 01:14:06;;;;;;;12.80;5.77;;;;;;;4.65;92.06;100844.59;4231043;28;20369;-64
2023/05/07 01:16:32;;;;;;;7.53;4.30;;;;;;;4.63;91.84;100841.19;4234010;28;21138;-66
2023/05/07 01:19:00;;;;;;;11.27;5.30;;;;;;;4.74;92.08;100845.84;4227378;28;20239;-65
2023/05/07 01:21:26;;;;;;;11.50;4.87;;;;;;;4.72;91.70;100834.34;4229526;28;20600;-64
2023/05/07 01:23:54;;;;;;;10.00;4.70;;;;;;;4.69;91.62;100850.63;4220238;28;21797;-65
2023/05/07 01:26:21;;;;;;;10.17;4.77;;;;;;;4.69;91.59;100839.91;4220342;28;20232;-66
2023/05/07 01:28:48;;;;;;;12.30;5.50;;;;;;;4.70;91.71;100841.63;4228205;28;20553;-66
2023/05/07 01:31:16;;;;;;;8.63;4.90;;;;;;;4.58;92.01;100846.84;4224337;28;20232;-65
2023/05/07 01:33:44;;;;;;;8.30;5.00;;;;;;;4.62;92.07;100846.63;4220225;28;20844;-66
2023/05/07 01:36:12;;;;;;;8.63;4.83;;;;;;;4.57;92.12;100853.16;4233373;28;21662;-65
2023/05/07 01:38:39;;;;;;;9.90;5.20;;;;;;;4.51;92.61;100858.03;4206302;28;20634;-66
2023/05/07 01:41:06;;;;;;;9.57;4.73;;;;;;;4.43;92.93;100854.00;4217518;28;20351;-66
2023/05/07 01:43:33;;;;;;;11.37;4.67;;;;;;;4.53;92.81;100850.75;4223464;28;22730;-65
2023/05/07 01:46:00;;;;;;;11.47;5.10;;;;;;;4.49;92.94;100849.25;4214601;28;20236;-67
2023/05/07 01:48:26;;;;;;;10.10;5.17;;;;;;;4.59;92.73;100853.91;4238085;28;20330;-65
2023/05/07 01:50:53;;;;;;;11.30;5.43;;;;;;;4.62;92.43;100855.53;4228413;28;20244;-65
2023/05/07 01:53:20;;;;;;;9.17;5.30;;;;;;;4.65;92.81;100844.59;4230750;28;20234;-66
2023/05/07 01:55:46;;;;;;;9.97;5.13;;;;;;;4.59;92.35;100851.25;4225420;28;20341;-67
2023/05/07 01:58:13;;;;;;;14.13;4.90;;;;;;;4.58;92.06;100844.16;4233220;28;20401;-66
2023/05/07 02:00:40;;;;;;;10.03;5.20;;;;;;;4.60;92.04;100841.34;4218337;28;20743;-66
2023/05/07 02:03:07;;;;;;;10.57;5.03;;;;;;;4.50;92.46;100845.56;4228033;28;20409;-67
2023/05/07 02:05:33;;;;;;;10.90;4.87;;;;;;;4.48;92.82;100842.16;4234122;28;20843;-66
2023/05/07 02:08:00;;;;;;;8.50;5.17;;;;;;;4.52;92.32;100846.34;4232701;28;20328;-66
2023/05/07 02:10:26;;;;;;;7.77;4.50;;;;;;;4.52;92.60;100841.88;4235462;28;21792;-66
2023/05/07 02:12:53;;;;;;;12.70;5.20;;;;;;;4.51;92.96;100845.50;4210957;28;21869;-65
2023/05/07 02:15:19;;;;;;;10.70;5.47;;;;;;;4.48;92.46;100834.13;4226719;28;20302;-65
2023/05/07 02:18:01;;;;;;;13.13;4.93;;;;;;;4.50;92.85;100834.84;4230855;28;21302;-66
2023/05/07 02:20:27;;;;;;;9.93;5.27;;;;;;;4.52;92.49;100835.63;4235598;28;20231;-66
2023/05/07 02:22:54;;;;;;;8.70;5.20;;;;;;;4.44;92.92;100833.44;4226950;28;21198;-65
2023/05/07 02:25:21;;;;;;;9.37;4.83;;;;;;;4.56;92.56;100843.38;4228108;28;26169;-66
2023/05/07 02:27:47;;;;;;;10.67;5.00;;;;;;;4.58;92.31;100844.16;4237130;28;21262;-67
2023/05/07 02:30:14;;;;;;;13.37;4.43;;;;;;;4.49;92.04;100841.19;4235606;28;20243;-66
2023/05/07 02:32:40;;;;;;;8.13;4.37;;;;;;;4.44;92.36;100844.19;4221701;28;20258;-65
2023/05/07 02:35:07;;;;;;;12.03;5.27;;;;;;;4.38;92.88;100849.94;4232091;28;20234;-65
2023/05/07 02:37:34;;;;;;;11.03;5.00;;;;;;;4.37;92.81;100848.22;4238242;28;20228;-67
2023/05/07 02:40:01;;;;;;;9.57;5.37;;;;;;;4.47;92.98;100851.16;4230384;28;20613;-67
2023/05/07 02:42:27;;;;;;;11.37;4.93;;;;;;;4.40;92.86;100850.66;4225956;28;21866;-65
2023/05/07 02:44:54;;;;;;;9.23;4.60;;;;;;;4.33;92.73;100852.03;4230282;28;20228;-66
2023/05/07 02:47:20;;;;;;;11.27;5.17;;;;;;;4.37;93.01;100848.22;4219899;28;20299;-65
2023/05/07 02:49:47;;;;;;;9.53;4.70;;;;;;;4.47;92.57;100854.69;4240450;28;20242;-66
2023/05/07 02:52:13;;;;;;;10.93;5.30;;;;;;;4.39;92.95;100863.22;4217224;28;20368;-63
2023/05/07 02:54:40;;;;;;;13.80;5.20;;;;;;;4.40;93.35;100856.03;4229654;28;21771;-65
2023/05/07 02:57:06;;;;;;;10.40;4.90;;;;;;;4.34;92.98;100854.63;4229888;28;21125;-66
2023/05/07 02:59:33;;;;;;;10.07;5.00;;;;;;;4.41;93.04;100858.63;4218445;28;21249;-65
2023/05/07 03:01:59;;;;;;;9.50;5.07;;;;;;;4.46;92.55;100860.16;4213908;28;20231;-66
2023/05/07 03:04:26;;;;;;;8.10;4.77;;;;;;;4.45;92.23;100859.31;4239227;28;21610;-65
2023/05/07 03:06:52;;;;;;;9.70;5.33;;;;;;;4.36;92.54;100863.41;4231904;28;21188;-67
2023/05/07 03:09:19;;;;;;;7.10;4.47;;;;;;;4.42;92.64;100867.53;4229485;28;20243;-67
2023/05/07 03:11:45;;;;;;;8.60;4.27;;;;;;;4.41;91.84;100861.31;4225899;28;20314;-66
2023/05/07 03:14:12;;;;;;;9.67;4.70;;;;;;;4.35;92.63;100871.56;4225009;28;20309;-66
2023/05/07 03:16:39;;;;;;;7.57;4.30;;;;;;;4.38;92.80;100874.06;4230910;28;20334;-66
2023/05/07 03:19:05;;;;;;;11.27;4.20;;;;;;;4.41;93.01;100873.84;4230795;28;20247;-66
2023/05/07 03:21:33;;;;;;;8.17;4.83;;;;;;;4.41;93.05;100877.41;4239066;28;20537;-66
2023/05/07 03:24:00;;;;;;;9.60;4.67;;;;;;;4.47;92.68;100878.81;4232637;28;20258;-68
2023/05/07 03:26:26;;;;;;;9.40;4.73;;;;;;;4.41;92.64;100884.56;4230554;28;20237;-68
2023/05/07 03:28:53;;;;;;;7.37;4.30;;;;;;;4.44;92.39;100879.88;4224392;28;20236;-66
2023/05/07 03:31:19;;;;;;;9.13;4.53;;;;;;;4.40;92.63;100882.84;4232381;28;20315;-65
2023/05/07 03:33:53;;;;;;;7.23;4.50;;;;;;;4.42;92.81;100888.97;4215109;28;20277;-65
2023/05/07 03:36:20;;;;;;;8.53;4.20;;;;;;;4.50;92.66;100896.50;4223660;28;20262;-67
2023/05/07 03:38:48;;;;;;;7.87;4.77;;;;;;;4.48;92.55;100901.97;4226023;28;25364;-66
2023/05/07 03:41:14;;;;;;;9.33;4.33;;;;;;;4.47;92.80;100899.41;4220367;28;20228;-66
2023/05/07 03:43:41;;;;;;;9.97;4.13;;;;;;;4.47;92.47;100905.63;4225290;28;20247;-67
2023/05/07 03:46:07;;;;;;;9.90;4.37;;;;;;;4.40;92.78;100907.84;4239060;28;20373;-66
2023/05/07 03:48:34;;;;;;;8.90;4.53;;;;;;;4.44;92.59;100904.00;4232118;28;20623;-67
2023/05/07 03:51:00;;;;;;;8.13;4.70;;;;;;;4.47;92.52;100916.34;4207180;28;20230;-66
2023/05/07 03:53:27;;;;;;;8.47;4.40;;;;;;;4.61;92.78;100912.81;4213288;28;20331;-67
2023/05/07 03:55:54;;;;;;;7.43;4.47;;;;;;;4.53;92.35;100924.00;4260392;28;21196;-64
2023/05/07 03:58:20;;;;;;;9.90;4.43;;;;;;;4.51;92.58;100925.94;4227265;28;20267;-67
2023/05/07 04:00:47;;;;;;;7.40;4.13;;;;;;;4.54;92.81;100919.50;4234071;28;20290;-69
2023/05/07 04:03:15;;;;;;;10.47;4.77;;;;;;;4.46;93.02;100919.13;4255138;28;21878;-67
2023/05/07 04:05:42;;;;;;;9.53;4.30;;;;;;;4.57;92.38;100914.81;4225187;28;25397;-66
2023/05/07 04:08:08;;;;;;;8.43;4.73;;;;;;;4.48;92.01;100914.53;4240046;28;25046;-67
2023/05/07 04:10:35;;;;;;;10.63;4.07;;;;;;;4.48;92.67;100927.94;4248251;28;20227;-66
2023/05/07 04:13:02;;;;;;;7.53;3.90;;;;;;;4.47;92.25;100931.59;4246703;28;20500;-67
2023/05/07 04:15:28;;;;;;;7.50;4.00;;;;;;;4.52;92.43;100938.38;4228693;28;20255;-65
2023/05/07 04:17:55;;;;;;;7.80;4.17;;;;;;;4.55;91.80;100926.59;4228249;28;21507;-67
2023/05/07 04:20:21;;;;;;;8.33;4.50;;;;;;;4.59;92.43;100930.81;4242361;28;20253;-65
2023/05/07 04:22:48;;;;;;;9.10;4.50;;;;;;;4.61;92.09;100939.63;4230565;28;21812;-65
2023/05/07 04:25:16;;;;;;;10.93;4.53;;;;;;;4.60;92.19;100938.78;4232171;28;20413;-65
2023/05/07 04:27:42;;;;;;;8.17;4.60;;;;;;;4.60;92.15;100944.13;4229284;28;20285;-65
2023/05/07 04:30:09;;;;;;;8.87;4.43;;;;;;;4.55;91.91;100951.59;4245355;28;20235;-69
2023/05/07 04:32:37;;;;;;;8.17;4.50;;;;;;;4.51;92.05;100939.34;4229972;28;20239;-66
2023/05/07 04:35:04;;;;;;;8.73;4.53;;;;;;;4.60;92.70;100952.19;4227524;28;20243;-66
2023/05/07 04:37:32;;;;;;;8.17;4.23;;;;;;;4.64;92.42;100949.28;4223707;28;20286;-65
2023/05/07 04:39:58;;;;;;;7.20;4.13;;;;;;;4.58;92.13;100955.88;4224566;28;20242;-66
2023/05/07 04:42:25;;;;;;;6.07;4.00;;;;;;;4.63;92.13;100956.47;4222002;28;20227;-65
2023/05/07 04:44:53;;;;;;;7.10;4.50;;;;;;;4.60;92.03;100962.03;4210829;28;20262;-67
2023/05/07 04:47:19;;;;;;;8.73;4.17;;;;;;;4.59;92.24;100960.28;4229677;28;20488;-65
2023/05/07 04:49:46;;;;;;;6.27;3.93;;;;;;;4.59;92.44;100957.63;4242915;28;22821;-66
2023/05/07 04:52:13;;;;;;;11.20;4.17;;;;;;;4.68;92.05;100965.09;4224913;28;20255;-67
2023/05/07 04:54:39;;;;;;;7.70;4.17;;;;;;;4.73;92.30;100964.81;4234066;28;21211;-66
2023/05/07 04:57:06;;;;;;;10.53;4.53;;;;;;;4.80;91.64;100965.25;4227823;28;20973;-65
2023/05/07 04:59:33;;;;;;;7.03;4.17;;;;;;;4.76;91.65;100965.47;4220518;28;20258;-66
2023/05/07 05:02:00;;;;;;;9.73;4.03;;;;;;;4.74;91.72;100977.25;4221567;28;20276;-64
2023/05/07 05:04:27;;;;;;;7.10;4.10;;;;;;;4.79;91.61;100967.09;4220379;28;20232;-66
2023/05/07 05:06:53;;;;;;;6.97;4.07;;;;;;;4.83;91.85;100982.06;4230754;28;20302;-68
2023/05/07 05:09:20;;;;;;;7.23;3.70;;;;;;;4.83;91.77;100975.81;4232515;28;20242;-66
2023/05/07 05:11:46;;;;;;;7.57;3.90;;;;;;;4.92;91.70;100977.91;4223591;28;20236;-68
2023/05/07 05:14:13;;;;;;;7.77;3.90;;;;;;;4.90;92.04;100988.75;4203465;28;20231;-67
2023/05/07 05:16:39;;;;;;;8.30;4.00;;;;;;;5.01;91.70;100981.81;4227111;28;20245;-67
2023/05/07 05:19:06;;;;;;;7.93;3.63;;;;;;;5.08;91.26;100981.34;4226583;28;20804;-68
2023/05/07 05:21:33;;;;;;;8.43;4.20;;;;;;;5.16;90.73;100988.03;4231665;28;22433;-66
2023/05/07 05:23:59;;;;;;;6.77;4.03;;;;;;;5.31;90.21;100986.19;4230612;28;20312;-66
2023/05/07 05:26:26;;;;;;;7.67;4.00;;;;;;;5.27;90.52;100990.03;4232420;28;20246;-66
2023/05/07 05:28:52;;;;;;;9.23;3.70;;;;;;;5.37;90.66;100991.13;4241431;28;20247;-65
2023/05/07 05:31:19;;;;;;;6.37;3.50;;;;;;;5.32;90.17;100993.28;4230282;28;20413;-67
2023/05/07 05:33:45;;;;;;;5.87;3.40;;;;;;;5.39;90.55;100991.91;4227035;28;20251;-67
2023/05/07 05:36:12;;;;;;;5.27;3.40;;;;;;;5.43;89.74;100995.25;4224029;28;20227;-67
2023/05/07 05:38:40;;;;;;;6.77;3.57;;;;;;;5.46;89.95;100992.38;4218680;28;20246;-68
2023/05/07 05:41:06;;;;;;;6.53;3.43;;;;;;;5.50;89.88;100999.25;4224524;28;20232;-66
2023/05/07 05:43:33;;;;;;;7.47;2.97;;;;;;;5.52;89.28;100995.50;4219036;28;20228;-66
2023/05/07 05:46:00;;;;;;;9.00;3.47;;;;;;;5.39;89.30;101000.84;4223371;28;20263;-67
2023/05/07 05:48:28;;;;;;;6.70;3.13;;;;;;;5.48;89.21;101001.16;4211193;28;20235;-64
2023/05/07 05:50:55;;;;;;;7.23;3.20;;;;;;;5.50;89.22;101010.00;4231737;28;20305;-66
2023/05/07 05:53:21;;;;;;;6.03;3.20;;;;;;;5.59;89.33;101012.09;4221545;28;20266;-67
2023/05/07 05:55:48;;;;;;;4.90;3.10;;;;;;;5.47;88.87;101018.28;4232074;28;20919;-68
2023/05/07 05:58:15;;;;;;;5.23;3.37;;;;;;;5.46;88.66;101011.19;4213283;28;20601;-64
2023/05/07 06:00:41;;;;;;;7.63;3.07;;;;;;;5.51;88.56;101004.50;4198734;28;21370;-66
2023/05/07 06:03:08;;;;;;;4.63;2.80;;;;;;;5.52;88.33;101021.50;4222787;28;20708;-66
2023/05/07 06:05:34;;;;;;;6.53;2.67;;;;;;;5.63;88.64;101029.72;4226250;28;20602;-68
2023/05/07 06:08:01;;;;;;;7.10;3.00;;;;;;;5.44;88.07;101034.56;4221290;28;20246;-70
2023/05/07 06:10:28;;;;;;;5.43;2.43;;;;;;;5.46;88.60;101024.59;4234113;28;20580;-66
2023/05/07 06:12:54;;;;;;;5.23;2.70;;;;;;;5.46;88.36;101036.19;4213009;28;20236;-67
2023/05/07 06:15:21;;;;;;;5.27;2.90;;;;;;;5.53;88.08;101026.78;4222736;28;20236;-69
2023/05/07 06:17:48;;;;;;;4.57;3.03;;;;;;;5.44;88.44;101026.50;4222267;28;20292;-69
2023/05/07 06:20:15;;;;;;;6.47;2.63;;;;;;;5.65;88.32;101033.16;4208804;28;20564;-69
2023/05/07 06:22:42;;;;;;;5.73;2.80;;;;;;;5.60;88.68;101034.41;4240439;28;20236;-68
2023/05/07 06:25:08;;;;;;;4.53;2.87;;;;;;;5.81;88.00;101040.22;4233984;28;21126;-68
2023/05/07 06:27:35;;;;;;;5.30;2.80;;;;;;;5.84;86.99;101042.72;4236083;28;20238;-68
2023/05/07 06:30:02;;;;;;;3.17;2.37;;;;;;;6.03;86.58;101053.13;4231419;28;23033;-68
2023/05/07 06:32:28;;;;;;;4.70;2.57;;;;;;;5.94;86.57;101042.94;4234894;28;20235;-68
2023/05/07 06:34:55;;;;;;;5.60;2.60;;;;;;;6.05;83.74;101051.19;4237423;28;20228;-69
2023/05/07 06:37:22;;;;;;;6.57;2.50;;;;;;;5.90;85.84;101044.09;4233727;28;20231;-70
2023/05/07 06:39:48;;;;;;;3.87;2.57;;;;;;;5.90;85.20;101041.41;4232131;28;20425;-69
2023/05/07 06:42:15;;;;;;;3.87;2.47;;;;;;;5.91;84.72;101037.78;4230146;28;21199;-71
2023/05/07 06:44:41;;;;;;;5.57;2.70;;;;;;;5.93;84.51;101038.53;4221860;28;20240;-71
2023/05/07 06:47:08;;;;;;;4.87;2.47;;;;;;;6.02;84.54;101043.34;4221710;28;20226;-69
2023/05/07 06:49:34;;;;;;;5.00;2.80;;;;;;;6.10;84.96;101045.50;4227446;28;20250;-69
2023/05/07 06:52:01;;;;;;;5.57;2.67;;;;;;;6.03;84.04;101047.75;4226933;28;20313;-70
2023/05/07 06:54:28;;;;;;;6.07;2.33;;;;;;;6.08;83.97;101044.75;4243610;28;20238;-69
2023/05/07 06:56:55;;;;;;;8.43;2.90;;;;;;;6.08;84.47;101050.97;4221568;28;20435;-69
2023/05/07 06:59:21;;;;;;;4.87;2.47;;;;;;;6.14;83.65;101057.78;4238425;28;20302;-71
2023/05/07 07:01:48;;;;;;;4.53;2.40;;;;;;;6.31;82.61;101052.09;4223101;28;20366;-72
2023/05/07 07:04:15;;;;;;;6.67;2.63;;;;;;;6.42;82.61;101058.59;4245416;28;21516;-72
2023/05/07 07:06:41;;;;;;;4.80;2.50;;;;;;;6.64;81.39;101057.97;4257665;28;20235;-66
2023/05/07 07:09:08;;;;;;;4.37;2.63;;;;;;;6.73;81.08;101057.31;4231520;28;20241;-65
2023/05/07 07:11:35;;;;;;;3.77;2.10;;;;;;;6.86;80.37;101059.16;4250993;28;20402;-64
2023/05/07 07:14:01;;;;;;;3.37;2.17;;;;;;;7.03;80.13;101058.81;4246306;28;20266;-64
2023/05/07 07:16:28;;;;;;;3.97;2.40;;;;;;;7.18;77.93;101064.94;4243241;28;20240;-66
2023/05/07 07:18:54;;;;;;;3.87;2.07;;;;;;;7.14;78.16;101058.03;4236656;28;20235;-65
2023/05/07 07:21:21;;;;;;;4.10;2.10;;;;;;;7.41;76.67;101067.81;4230184;28;20238;-67
2023/05/07 07:23:48;;;;;;;4.73;2.20;;;;;;;7.51;75.53;101068.88;4240706;28;20238;-65
2023/05/07 07:26:14;;;;;;;4.60;2.30;;;;;;;7.65;75.62;101070.53;4223726;28;20278;-66
2023/05/07 07:28:46;;;;;;;5.53;2.20;;;;;;;7.75;74.83;101079.69;4210623;28;20238;-67
2023/05/07 07:31:13;;;;;;;3.30;2.03;;;;;;;7.55;74.75;101078.44;4236164;28;20339;-67
2023/05/07 07:33:40;;;;;;;3.73;2.00;;;;;;;7.81;73.90;101078.38;4272888;28;20345;-64
2023/05/07 07:36:07;;;;;;;3.63;1.90;;;;;;;8.00;74.19;101080.56;4221070;28;20250;-67
2023/05/07 07:38:34;;;;;;;2.37;1.80;;;;;;;7.97;73.47;101079.94;4235701;28;20262;-67
2023/05/07 07:41:01;;;;;;;4.60;2.60;;;;;;;8.21;72.63;101086.16;4252986;28;21148;-66
2023/05/07 07:43:28;;;;;;;3.50;1.70;;;;;;;8.15;72.66;101083.91;4213678;28;20223;-68
2023/05/07 07:45:55;;;;;;;2.60;1.83;;;;;;;7.91;73.32;101083.94;4210725;28;20523;-66
2023/05/07 07:48:21;;;;;;;5.53;1.90;;;;;;;7.91;72.65;101084.78;4227278;28;20243;-68
2023/05/07 07:50:50;;;;;;;4.53;2.00;;;;;;;8.08;72.96;101086.19;4238794;28;20807;-66
2023/05/07 07:53:17;;;;;;;3.97;2.20;;;;;;;8.37;73.10;101085.88;4235229;28;20255;-68
2023/05/07 07:55:44;;;;;;;3.20;2.10;;;;;;;8.47;71.84;101091.44;4236120;28;20235;-66
2023/05/07 07:58:10;;;;;;;4.67;2.10;;;;;;;8.22;72.27;101084.31;4232263;28;20305;-67
2023/05/07 08:00:37;;;;;;;3.17;1.87;;;;;;;7.75;72.14;101086.88;4225557;28;20279;-66
2023/05/07 08:03:04;;;;;;;5.73;2.30;;;;;;;7.66;72.98;101085.75;4234942;28;22480;-67
2023/05/07 08:05:31;;;;;;;4.33;1.83;;;;;;;7.83;72.97;101092.56;4227644;28;22640;-65
2023/05/07 08:07:58;;;;;;;2.83;1.90;;;;;;;7.85;72.51;101104.09;4225554;28;20426;-67
2023/05/07 08:10:25;;;;;;;3.87;1.80;;;;;;;7.97;71.92;101088.00;4236903;28;21716;-66
2023/05/07 08:12:51;;;;;;;4.20;1.80;;;;;;;7.69;72.59;101095.44;4239060;28;20235;-68
2023/05/07 08:15:18;;;;;;;3.50;1.80;;;;;;;7.52;72.28;101102.91;4229675;28;23701;-68
2023/05/07 08:17:45;;;;;;;4.53;1.80;;;;;;;7.59;73.17;101100.63;4231320;28;20252;-67
2023/05/07 08:20:11;;;;;;;4.13;2.07;;;;;;;7.94;72.10;101102.56;4228656;28;20228;-68
2023/05/07 08:22:38;;;;;;;3.50;1.80;;;;;;;8.06;70.92;101106.19;4251159;28;25646;-67
2023/05/07 08:25:05;;;;;;;3.97;2.20;;;;;;;7.96;71.17;101103.31;4224894;28;20234;-67
2023/05/07 08:27:31;;;;;;;2.73;1.73;;;;;;;7.84;71.20;101113.16;4225059;28;20450;-67
2023/05/07 08:29:58;;;;;;;5.40;1.93;;;;;;;7.89;70.51;101104.75;4240379;28;20595;-67
2023/05/07 08:32:25;;;;;;;4.70;1.90;;;;;;;8.25;70.30;101111.94;4226882;28;20236;-70
2023/05/07 08:34:52;;;;;;;4.83;2.00;;;;;;;8.90;67.78;101099.88;4253138;28;21833;-68
2023/05/07 08:37:18;;;;;;;2.97;1.87;;;;;;;9.06;67.15;101108.50;4246851;28;20624;-67
2023/05/07 08:39:45;;;;;;;4.67;1.70;;;;;;;8.87;66.23;101104.53;4237526;28;20317;-66
2023/05/07 08:42:12;;;;;;;4.93;1.60;;;;;;;8.93;65.87;101105.03;4231626;28;21651;-70
2023/05/07 08:44:39;;;;;;;2.73;1.50;;;;;;;9.25;64.65;101107.91;4226774;28;20486;-69
2023/05/07 08:47:07;;;;;;;6.43;1.50;;;;;;;9.54;63.77;101109.25;4227485;28;20240;-67
2023/05/07 08:49:34;;;;;;;3.23;1.77;;;;;;;9.49;64.35;101113.16;4247391;28;20782;-68
2023/05/07 08:52:01;;;;;;;2.00;1.50;;;;;;;9.34;65.01;101100.88;4229220;28;20311;-68
2023/05/07 08:54:29;;;;;;;4.73;1.80;;;;;;;8.91;65.74;101115.09;4225894;28;20238;-67
2023/05/07 08:56:55;;;;;;;4.90;1.70;;;;;;;8.87;65.69;101122.56;4241082;28;21014;-68
2023/05/07 08:59:22;;;;;;;4.40;1.87;;;;;;;8.80;66.41;101124.03;4231792;28;20236;-67
2023/05/07 09:01:49;;;;;;;3.20;1.90;;;;;;;9.14;65.03;101124.97;4237415;28;20453;-69
2023/05/07 09:04:15;;;;;;;5.00;1.80;;;;;;;9.62;62.88;101123.00;4230221;28;20242;-68
2023/05/07 09:06:42;;;;;;;3.73;1.40;;;;;;;9.45;62.98;101108.13;4236311;28;22213;-68
2023/05/07 09:09:09;;;;;;;4.30;1.80;;;;;;;9.67;61.49;101123.47;4231996;28;20233;-67
2023/05/07 09:11:35;;;;;;;2.93;1.57;;;;;;;9.88;61.46;101128.13;4226719;28;20655;-67
2023/05/07 09:14:02;;;;;;;2.97;1.50;;;;;;;9.38;62.93;101124.00;4223203;28;20413;-67
2023/05/07 09:16:30;;;;;;;3.70;1.60;;;;;;;9.09;63.88;101129.88;4234091;28;20335;-67
2023/05/07 09:19:00;;;;;;;5.23;2.13;;;;;;;9.20;64.30;101131.72;4232509;28;20227;-68
2023/05/07 09:21:27;;;;;;;4.40;1.80;;;;;;;9.35;63.42;101132.34;4220078;28;20365;-68
2023/05/07 09:23:55;;;;;;;3.17;1.47;;;;;;;9.38;62.73;101118.59;4255044;28;21648;-66
2023/05/07 09:26:22;;;;;;;2.93;1.43;;;;;;;9.25;62.93;101132.22;4250322;28;20243;-66
2023/05/07 09:28:49;;;;;;;3.60;1.80;;;;;;;9.04;62.76;101140.16;4222747;28;22966;-66
2023/05/07 09:31:16;;;;;;;6.07;1.80;;;;;;;8.78;64.28;101143.06;4214966;28;20227;-65
2023/05/07 09:33:46;;;;;;;4.97;2.00;;;;;;;8.92;64.11;101136.56;4198395;28;20248;-66
2023/05/07 09:36:13;;;;;;;2.27;1.50;;;;;;;8.98;61.71;101144.22;4207134;28;20570;-67
2023/05/07 09:38:40;;;;;;;3.47;2.00;;;;;;;9.24;60.47;101143.16;4237975;28;20324;-67
2023/05/07 09:41:09;;;;;;;4.33;1.67;;;;;;;9.33;59.41;101142.38;4236621;28;20224;-68
2023/05/07 09:43:37;;;;;;;3.43;1.40;;;;;;;9.51;58.88;101153.59;4230808;28;20246;-69
2023/05/07 09:46:06;;;;;;;2.50;1.33;;;;;;;9.57;59.54;101131.47;4221474;28;22237;-70
2023/05/07 09:48:37;;;;;;;4.07;1.67;;;;;;;9.53;60.62;101157.03;4220354;28;21751;-69
2023/05/07 09:51:15;;;;;;;4.57;1.70;;;;;;;9.35;60.12;101162.06;4210580;28;20244;-69
2023/05/07 09:53:43;;;;;;;4.03;1.53;;;;;;;9.52;60.39;101156.19;4205435;28;20250;-66
2023/05/07 09:56:11;;;;;;;3.10;1.47;;;;;;;9.72;59.04;101159.09;4223587;28;20248;-65
2023/05/07 09:58:39;;;;;;;3.33;1.57;;;;;;;9.92;59.92;101154.78;4238943;28;20379;-67
2023/05/07 10:01:06;;;;;;;3.30;1.67;;;;;;;10.29;58.17;101162.56;4228704;28;20462;-69
2023/05/07 10:03:34;;;;;;;2.73;1.53;;;;;;;10.75;57.27;101165.13;4239661;28;20616;-68
2023/05/07 10:06:02;;;;;;;3.63;1.67;;;;;;;10.98;55.47;101155.03;4215391;28;22506;-69
2023/05/07 10:08:30;;;;;;;6.40;1.67;;;;;;;10.23;57.09;101164.94;4205669;28;21926;-69
2023/05/07 10:10:57;;;;;;;2.13;1.33;;;;;;;10.15;55.64;101166.44;4217052;28;20231;-69
2023/05/07 10:13:24;;;;;;;4.50;1.30;;;;;;;10.09;54.98;101160.66;4233102;28;20537;-66
2023/05/07 10:15:50;;;;;;;2.17;1.33;;;;;;;9.81;55.17;101174.59;4237386;28;20572;-67
2023/05/07 10:18:18;;;;;;;3.90;1.43;;;;;;;9.98;55.24;101177.78;4221938;28;20389;-67
2023/05/07 10:20:46;;;;;;;3.87;1.43;;;;;;;10.22;54.40;101168.63;4216294;28;20269;-67
2023/05/07 10:23:13;;;;;;;4.43;1.50;;;;;;;10.25;54.71;101171.94;4239609;28;20277;-65
2023/05/07 10:25:41;;;;;;;4.73;1.90;;;;;;;10.39;54.14;101169.94;4242720;28;26572;-67
2023/05/07 10:28:10;;;;;;;3.83;1.70;;;;;;;10.68;54.30;101174.75;4223128;28;21687;-70
2023/05/07 10:31:01;;;;;;;3.43;1.60;;;;;;;11.10;53.48;101174.81;4228517;28;20230;-69
2023/05/07 10:33:29;;;;;;;2.53;1.60;;;;;;;10.73;53.14;101157.13;4236901;28;20268;-65
2023/05/07 10:35:59;;;;;;;3.73;1.50;;;;;;;10.81;53.42;101169.16;4262505;28;20847;-68
2023/05/07 10:38:27;;;;;;;3.87;1.33;;;;;;;11.07;52.91;101175.06;4226723;28;20307;-64
2023/05/07 10:40:53;;;;;;;4.40;1.30;;;;;;;11.13;52.48;101169.09;4220753;28;21205;-65
2023/05/07 10:43:20;;;;;;;2.37;1.37;;;;;;;11.01;51.60;101167.47;4240967;28;20588;-68
2023/05/07 10:46:20;;;;;;;3.43;1.40;;;;;;;10.74;53.71;101176.94;4250131;28;20235;-66
2023/05/07 10:49:02;;;;;;;2.60;1.37;;;;;;;10.31;53.40;101168.72;4212708;28;22758;-65
2023/05/07 10:51:32;;;;;;;3.50;1.60;;;;;;;10.23;54.96;101184.72;4235283;28;21030;-65
2023/05/07 10:54:11;;;;;;;5.63;1.50;;;;;;;10.19;54.78;101185.97;4222653;28;20236;-67
2023/05/07 10:56:42;;;;;;;3.27;1.60;;;;;;;9.76;56.24;101184.94;4229115;28;22410;-70
2023/05/07 10:59:23;;;;;;;2.53;1.60;;;;;;;9.99;56.09;101180.34;4243914;28;25405;-69
2023/05/07 11:01:59;;;;;;;11.03;1.70;;;;;;;10.08;56.07;101189.53;4234438;28;20235;-65
2023/05/07 11:04:27;;;;;;;2.67;1.20;;;;;;;10.04;55.64;101176.41;4229990;28;20239;-64
2023/05/07 11:07:20;;;;;;;4.17;1.70;;;;;;;10.13;55.11;101184.63;4213997;28;23616;-65
2023/05/07 11:09:53;;;;;;;2.03;1.37;;;;;;;10.12;55.40;101195.59;4263664;28;25113;-65
2023/05/07 11:12:38;;;;;;;4.90;1.80;;;;;;;10.15;55.97;101181.78;4272826;28;20243;-64
2023/05/07 11:15:17;;;;;;;5.18;1.50;;;;;;;10.46;54.76;101180.13;4228418;28;20730;-61
2023/05/07 11:17:58;;;;;;;8.73;1.70;;;;;;;10.52;54.80;101195.00;4245206;28;23590;-63
2023/05/07 11:20:47;;;;;;;2.97;1.30;;;;;;;10.78;53.49;101205.50;4225079;28;20614;-62
2023/05/07 11:23:32;;;;;;;2.23;1.20;;;;;;;9.83;54.69;101199.66;4212105;28;20675;-66
2023/05/07 11:26:03;;;;;;;2.17;1.23;;;;;;;9.86;55.78;101197.72;4223943;28;20227;-71
2023/05/07 11:28:31;;;;;;;3.37;1.30;;;;;;;10.12;54.46;101201.84;4230379;28;21730;-67
2023/05/07 11:30:57;;;;;;;2.70;1.30;;;;;;;10.16;54.19;101202.44;4242522;28;25378;-67
2023/05/07 11:33:27;;;;;;;1.90;1.20;;;;;;;10.31;54.24;101190.38;4237874;28;20239;-67